Time;durP1;ratioP1;P1;durP2;ratioP2;P2;SDS_P1;SDS_P2;PMS_P1;PMS_P2;Temp;Humidity;BMP_temperature;BMP_pressure;BME280_temperature;BME280_humidity;BME280_pressure;Samples;Min_cycle;Max_cycle;Signal;HPM_P1;HPM_P2
2022/11/21 00:03:37;;;;;;;0.90;0.90;;;8.40;48.60;;;;;;10364807;28;20231;-70
2022/11/21 00:08:40;;;;;;;1.00;1.00;;;8.40;48.40;;;;;;10356731;28;20233;-70
2022/11/21 00:13:45;;;;;;;0.90;0.90;;;8.30;48.40;;;;;;10358476;28;20289;-70
2022/11/21 00:18:48;;;;;;;1.00;1.00;;;8.30;48.60;;;;;;10354388;28;20702;-70
2022/11/21 00:23:53;;;;;;;1.03;1.03;;;8.30;48.60;;;;;;10365764;28;20226;-72
2022/11/21 00:28:57;;;;;;;1.10;1.10;;;8.30;48.80;;;;;;10358645;28;20230;-72
2022/11/21 00:34:00;;;;;;;0.97;0.97;;;8.30;48.70;;;;;;10366012;28;20640;-72
2022/11/21 00:39:03;;;;;;;0.80;0.80;;;8.30;48.60;;;;;;10365005;28;20736;-72
2022/11/21 00:44:08;;;;;;;0.90;0.90;;;8.30;48.50;;;;;;10360167;28;20281;-71
2022/11/21 00:49:11;;;;;;;1.10;1.10;;;8.40;48.70;;;;;;10367711;28;20381;-72
2022/11/21 00:54:14;;;;;;;0.90;0.90;;;8.40;48.50;;;;;;10360902;28;20222;-71
2022/11/21 00:59:18;;;;;;;1.10;1.10;;;8.40;48.50;;;;;;10362945;28;20237;-72
2022/11/21 01:04:21;;;;;;;0.83;0.83;;;8.40;48.50;;;;;;10365340;28;20623;-72
2022/11/21 01:09:25;;;;;;;1.00;1.00;;;8.40;48.30;;;;;;10361894;28;20943;-72
2022/11/21 01:14:29;;;;;;;1.00;1.00;;;8.50;48.40;;;;;;10368873;28;20615;-72
2022/11/21 01:19:32;;;;;;;1.10;1.00;;;8.50;48.60;;;;;;10365590;28;20237;-72
2022/11/21 01:24:36;;;;;;;0.90;0.90;;;8.50;48.50;;;;;;10356959;28;20237;-72
2022/11/21 01:29:41;;;;;;;1.00;1.00;;;8.50;48.50;;;;;;10360768;28;20267;-72
2022/11/21 01:34:44;;;;;;;0.83;0.83;;;8.50;48.50;;;;;;10367698;28;20227;-72
2022/11/21 01:39:47;;;;;;;0.80;0.80;;;8.60;48.30;;;;;;10358117;28;20234;-72
2022/11/21 01:44:54;;;;;;;0.70;0.70;;;8.60;48.20;;;;;;10364088;28;20768;-72
2022/11/21 01:49:57;;;;;;;1.27;0.80;;;8.60;48.00;;;;;;10363361;28;20286;-72
2022/11/21 01:55:04;;;;;;;1.03;0.80;;;8.50;47.90;;;;;;10360563;28;20249;-72
2022/11/21 02:00:15;;;;;;;0.80;0.80;;;8.50;47.90;;;;;;10364072;28;20230;-72
2022/11/21 02:05:22;;;;;;;0.80;0.80;;;8.50;48.00;;;;;;10362236;28;20253;-72
2022/11/21 02:10:25;;;;;;;1.33;0.87;;;8.50;47.90;;;;;;10359240;28;20235;-72
2022/11/21 02:15:30;;;;;;;0.90;0.80;;;8.40;47.70;;;;;;10361167;28;20234;-72
2022/11/21 02:20:33;;;;;;;1.07;0.70;;;8.40;47.60;;;;;;10355296;28;20647;-72
2022/11/21 02:25:40;;;;;;;0.67;0.67;;;8.40;47.70;;;;;;10362387;28;20234;-72
2022/11/21 02:30:44;;;;;;;0.77;0.77;;;8.30;47.70;;;;;;10362297;28;20226;-72
2022/11/21 02:35:56;;;;;;;1.17;0.80;;;8.40;47.90;;;;;;10362097;28;20222;-72
2022/11/21 02:41:09;;;;;;;0.70;0.70;;;8.30;47.90;;;;;;10352837;28;20781;-72
2022/11/21 02:46:12;;;;;;;1.00;0.60;;;8.30;48.10;;;;;;10364200;28;20640;-71
2022/11/21 02:51:15;;;;;;;1.10;0.83;;;8.40;48.20;;;;;;10365403;28;20232;-72
2022/11/21 02:56:20;;;;;;;0.80;0.80;;;8.30;48.30;;;;;;10349577;28;20262;-72
2022/11/21 03:01:23;;;;;;;0.77;0.77;;;8.40;48.20;;;;;;10354692;28;20258;-72
2022/11/21 03:06:27;;;;;;;0.60;0.60;;;8.40;48.10;;;;;;10359329;28;20231;-72
2022/11/21 03:11:31;;;;;;;0.60;0.60;;;8.50;48.10;;;;;;10350661;28;20234;-72
2022/11/21 03:16:34;;;;;;;1.23;0.80;;;8.50;48.30;;;;;;10354815;28;20239;-72
2022/11/21 03:21:37;;;;;;;0.70;0.70;;;8.50;48.10;;;;;;10351525;28;20239;-68
2022/11/21 03:26:42;;;;;;;0.70;0.70;;;8.50;47.90;;;;;;10359693;28;20230;-69
2022/11/21 03:31:45;;;;;;;0.60;0.60;;;8.50;47.80;;;;;;10358365;28;20230;-68
2022/11/21 03:36:48;;;;;;;1.20;0.90;;;8.50;47.80;;;;;;10353006;28;20892;-69
2022/11/21 03:41:52;;;;;;;0.80;0.80;;;8.50;47.80;;;;;;10356577;28;20268;-69
2022/11/21 03:46:55;;;;;;;1.10;0.80;;;8.50;47.70;;;;;;10360293;28;20237;-69
2022/11/21 03:51:58;;;;;;;0.70;0.70;;;8.50;47.60;;;;;;10345291;28;20237;-68
2022/11/21 03:57:03;;;;;;;0.80;0.80;;;8.50;47.60;;;;;;10362088;28;20236;-70
2022/11/21 04:02:06;;;;;;;1.40;1.30;;;8.50;47.50;;;;;;10370658;28;20241;-69
2022/11/21 04:07:09;;;;;;;1.03;0.80;;;8.50;47.60;;;;;;10364918;28;20280;-69
2022/11/21 04:12:14;;;;;;;1.23;1.00;;;8.50;47.60;;;;;;10363384;28;20230;-69
2022/11/21 04:17:17;;;;;;;2.57;1.57;;;8.50;47.70;;;;;;10359198;28;20715;-69
2022/11/21 04:22:20;;;;;;;3.13;1.90;;;8.50;47.80;;;;;;10367608;28;20241;-68
2022/11/21 04:27:24;;;;;;;3.60;2.07;;;8.60;47.90;;;;;;10358605;28;20234;-68
2022/11/21 04:32:28;;;;;;;2.40;1.50;;;8.60;48.10;;;;;;10362629;28;20237;-68
2022/11/21 04:37:31;;;;;;;1.60;1.20;;;8.60;48.00;;;;;;10370155;28;20230;-68
2022/11/21 04:42:35;;;;;;;2.70;1.33;;;8.50;47.90;;;;;;10361610;28;20602;-72
2022/11/21 04:47:39;;;;;;;1.93;1.77;;;8.50;48.00;;;;;;10362055;28;20752;-73
2022/11/21 04:52:42;;;;;;;1.90;1.00;;;8.50;48.10;;;;;;10363319;28;20626;-73
2022/11/21 04:57:47;;;;;;;1.83;1.10;;;8.50;48.10;;;;;;10361973;28;20785;-72
2022/11/21 05:02:50;;;;;;;1.00;0.90;;;8.50;48.00;;;;;;10366862;28;20318;-71
2022/11/21 05:07:53;;;;;;;0.93;0.80;;;8.50;47.80;;;;;;10357480;28;20230;-72
2022/11/21 05:18:20;;;;;;;1.10;1.00;;;8.40;48.00;;;;;;10362136;28;20634;-72
2022/11/21 05:23:23;;;;;;;0.80;0.80;;;8.40;47.80;;;;;;10361944;28;20226;-72
2022/11/21 05:28:27;;;;;;;1.70;1.60;;;8.40;47.80;;;;;;10359886;28;20256;-72
2022/11/21 05:33:31;;;;;;;1.07;0.90;;;8.40;48.00;;;;;;10364687;28;20308;-72
2022/11/21 05:38:34;;;;;;;0.90;0.90;;;8.40;47.90;;;;;;10359678;28;21068;-72
2022/11/21 05:43:47;;;;;;;0.77;0.77;;;8.40;48.10;;;;;;10356041;28;20292;-72
2022/11/21 05:48:52;;;;;;;1.10;1.00;;;8.40;48.10;;;;;;10365755;28;20227;-71
2022/11/21 05:53:55;;;;;;;0.80;0.80;;;8.40;48.10;;;;;;10371290;28;20257;-72
2022/11/21 05:58:59;;;;;;;0.90;0.90;;;8.40;48.00;;;;;;10360415;28;20234;-72
2022/11/21 06:04:03;;;;;;;0.80;0.80;;;8.40;48.10;;;;;;10354524;28;20226;-71
2022/11/21 06:09:06;;;;;;;1.20;1.10;;;8.40;47.80;;;;;;10354161;28;20233;-71
2022/11/21 06:14:10;;;;;;;1.20;1.00;;;8.40;47.90;;;;;;10361741;28;20300;-72
2022/11/21 06:19:13;;;;;;;1.47;1.17;;;8.30;48.10;;;;;;10356252;28;20964;-72
2022/11/21 06:24:16;;;;;;;1.67;1.30;;;8.20;48.20;;;;;;10360106;28;20226;-71
2022/11/21 06:29:25;;;;;;;1.63;1.20;;;8.20;48.60;;;;;;10355013;28;20235;-70
2022/11/21 06:34:28;;;;;;;1.40;1.20;;;8.20;48.60;;;;;;10362498;28;20242;-71
2022/11/21 06:39:32;;;;;;;1.40;1.30;;;8.30;48.50;;;;;;10349536;28;20235;-71
2022/11/21 06:44:37;;;;;;;3.63;2.17;;;8.30;48.50;;;;;;10387267;22;20234;-81
2022/11/21 06:49:40;;;;;;;1.47;1.37;;;8.30;48.60;;;;;;10350205;28;20231;-81
2022/11/21 06:54:43;;;;;;;1.07;1.07;;;8.30;48.40;;;;;;10354522;28;20238;-81
2022/11/21 06:59:47;;;;;;;1.30;1.20;;;8.40;48.60;;;;;;10355245;28;20241;-80
2022/11/21 07:04:51;;;;;;;1.77;1.20;;;8.40;48.80;;;;;;10358742;28;20714;-81
2022/11/21 07:09:54;;;;;;;1.43;1.33;;;8.40;48.80;;;;;;10351688;28;20231;-80
2022/11/21 07:14:58;;;;;;;1.57;1.30;;;8.40;48.90;;;;;;10351966;28;20235;-80
2022/11/21 07:20:02;;;;;;;1.77;1.13;;;8.40;49.10;;;;;;10357600;28;20230;-81
2022/11/21 07:25:05;;;;;;;1.87;1.23;;;8.50;48.90;;;;;;10356072;28;20241;-81
2022/11/21 07:30:11;;;;;;;1.50;1.30;;;8.50;49.00;;;;;;10355323;28;20233;-81
2022/11/21 07:35:14;;;;;;;1.30;1.20;;;8.50;49.10;;;;;;10356025;28;20237;-79
2022/11/21 07:40:19;;;;;;;1.30;1.13;;;8.50;49.00;;;;;;10351824;28;20691;-79
2022/11/21 07:45:23;;;;;;;1.53;1.00;;;8.60;49.10;;;;;;10353931;28;20246;-79
2022/11/21 07:50:27;;;;;;;1.10;1.00;;;8.60;49.10;;;;;;10351727;28;20222;-79
2022/11/21 07:55:31;;;;;;;1.40;1.07;;;8.60;49.10;;;;;;10351309;28;20238;-79
2022/11/21 08:00:43;;;;;;;1.27;1.23;;;8.60;49.20;;;;;;10352884;28;20583;-80
2022/11/21 08:05:47;;;;;;;1.50;1.10;;;8.60;49.40;;;;;;10360490;28;20230;-79
2022/11/21 08:10:50;;;;;;;1.47;1.30;;;8.60;49.30;;;;;;10364045;28;20236;-79
2022/11/21 08:15:54;;;;;;;3.53;2.40;;;8.60;49.20;;;;;;10359553;28;20307;-79
2022/11/21 08:21:01;;;;;;;1.17;1.07;;;8.60;49.30;;;;;;10352036;28;20238;-81
2022/11/21 08:26:04;;;;;;;1.73;1.63;;;8.70;49.40;;;;;;10353682;28;20235;-79
2022/11/21 08:31:08;;;;;;;2.43;1.10;;;8.70;49.30;;;;;;10354207;28;20230;-80
2022/11/21 08:36:12;;;;;;;1.80;1.50;;;8.70;49.40;;;;;;10357017;28;20226;-79
2022/11/21 08:46:37;;;;;;;4.43;2.13;;;8.80;49.30;;;;;;10361300;28;20257;-81
2022/11/21 08:51:40;;;;;;;1.40;1.30;;;8.80;49.30;;;;;;10363138;28;20579;-79
2022/11/21 08:56:43;;;;;;;1.20;1.10;;;8.80;49.20;;;;;;10359546;28;20245;-79
2022/11/21 09:01:51;;;;;;;1.60;1.50;;;8.90;49.30;;;;;;10357836;28;20234;-79
2022/11/21 09:06:55;;;;;;;1.43;1.17;;;8.90;49.50;;;;;;10360010;28;20230;-80
2022/11/21 09:11:58;;;;;;;1.83;1.57;;;8.90;49.20;;;;;;10365996;28;20239;-79
2022/11/21 09:22:24;;;;;;;0.90;0.90;;;9.00;49.00;;;;;;10362817;28;20231;-79
2022/11/21 09:27:27;;;;;;;1.70;1.00;;;9.00;49.10;;;;;;10361606;28;20226;-79
2022/11/21 09:32:32;;;;;;;1.50;1.00;;;9.00;49.20;;;;;;10356050;28;20252;-80
2022/11/21 09:37:37;;;;;;;1.13;0.90;;;9.10;49.10;;;;;;10357651;28;20719;-82
2022/11/21 09:42:56;;;;;;;2.00;1.20;;;9.20;49.10;;;;;;10357839;28;20230;-80
2022/11/21 09:48:08;;;;;;;1.53;1.43;;;9.30;49.00;;;;;;10356334;28;20245;-80
2022/11/21 09:53:16;;;;;;;1.03;0.93;;;9.30;49.20;;;;;;10371862;28;20225;-78
2022/11/21 09:58:30;;;;;;;1.30;0.97;;;9.40;49.40;;;;;;10369262;28;20234;-80
2022/11/21 10:03:41;;;;;;;1.30;0.90;;;9.50;49.00;;;;;;10367218;28;20861;-79
2022/11/21 10:08:54;;;;;;;1.23;1.10;;;9.70;49.50;;;;;;10336504;28;20223;-77
2022/11/21 10:14:12;;;;;;;1.50;1.00;;;9.90;49.40;;;;;;10353800;28;20230;-81
2022/11/21 10:19:39;;;;;;;2.40;1.10;;;10.10;48.40;;;;;;10373857;28;20225;-79
2022/11/21 10:24:53;;;;;;;1.60;1.20;;;10.30;47.60;;;;;;10358563;28;20303;-79
2022/11/21 10:30:00;;;;;;;2.10;0.90;;;10.50;47.80;;;;;;10346904;28;20244;-80
2022/11/21 10:35:13;;;;;;;2.33;1.23;;;10.70;47.50;;;;;;10348448;28;20230;-80
2022/11/21 10:40:31;;;;;;;3.33;1.10;;;10.90;47.50;;;;;;10350178;28;20226;-78
2022/11/21 10:45:34;;;;;;;1.73;1.50;;;11.00;47.10;;;;;;10349518;28;20741;-77
2022/11/21 10:50:58;;;;;;;1.87;1.57;;;11.10;46.30;;;;;;10340670;28;20246;-79
2022/11/21 10:56:06;;;;;;;1.90;1.10;;;11.10;45.40;;;;;;10350599;28;20238;-78
2022/11/21 11:01:23;;;;;;;2.20;1.30;;;11.20;45.60;;;;;;10349672;28;20219;-78
2022/11/21 11:06:29;;;;;;;2.27;1.90;;;11.20;44.80;;;;;;10351243;28;20236;-77
2022/11/21 11:11:38;;;;;;;4.43;2.53;;;11.10;45.50;;;;;;10367992;28;20266;-82
2022/11/21 11:16:45;;;;;;;1.90;1.70;;;11.20;45.00;;;;;;10356441;28;20323;-81
2022/11/21 11:21:56;;;;;;;3.70;1.60;;;11.10;44.80;;;;;;10356313;28;20231;-81
2022/11/21 11:27:01;;;;;;;2.60;2.03;;;11.00;44.70;;;;;;10363208;28;20234;-83
2022/11/21 11:32:14;;;;;;;3.10;1.90;;;11.00;44.90;;;;;;10363455;28;20261;-82
2022/11/21 11:37:32;;;;;;;2.97;1.40;;;10.90;44.20;;;;;;10378933;28;20716;-82
2022/11/21 11:48:35;;;;;;;2.00;1.30;;;10.90;44.00;;;;;;10355919;28;20222;-82
2022/11/21 11:54:06;;;;;;;2.37;1.23;;;10.80;43.60;;;;;;10362119;28;20350;-81
2022/11/21 11:59:16;;;;;;;2.73;1.60;;;10.80;43.70;;;;;;10362103;28;20229;-80
2022/11/21 12:04:21;;;;;;;2.50;1.73;;;10.80;43.90;;;;;;10364617;28;20706;-80
2022/11/21 12:09:35;;;;;;;4.20;1.67;;;10.70;44.20;;;;;;10363749;28;20449;-80
2022/11/21 12:20:24;;;;;;;4.57;2.00;;;10.70;43.60;;;;;;10398588;28;20229;-69
2022/11/21 12:25:33;;;;;;;4.37;2.00;;;10.80;44.60;;;;;;10355856;28;20266;-69
2022/11/21 12:30:56;;;;;;;2.70;1.50;;;10.80;43.70;;;;;;10361743;28;20230;-68
2022/11/21 12:36:15;;;;;;;3.67;1.40;;;10.80;42.80;;;;;;10357167;28;20226;-69
2022/11/21 12:47:05;;;;;;;1.43;1.20;;;10.80;43.30;;;;;;10333502;28;20241;-69
2022/11/21 12:58:20;;;;;;;2.03;1.23;;;11.00;43.20;;;;;;10261557;28;20223;-68
2022/11/21 13:03:56;;;;;;;1.50;1.00;;;11.00;42.50;;;;;;10345425;28;20629;-70
2022/11/21 13:09:02;;;;;;;1.80;0.90;;;11.10;42.90;;;;;;10359381;28;20236;-76
2022/11/21 13:14:13;;;;;;;2.13;1.00;;;11.20;43.60;;;;;;10358776;28;20284;-76
2022/11/21 13:19:23;;;;;;;1.63;1.00;;;11.30;42.80;;;;;;10358674;28;20707;-77
2022/11/21 13:24:55;;;;;;;1.83;1.10;;;11.30;42.80;;;;;;10357633;28;20242;-76
2022/11/21 13:30:32;;;;;;;3.03;1.30;;;11.40;42.30;;;;;;10359427;28;20230;-76
2022/11/21 13:36:06;;;;;;;1.70;1.20;;;11.40;42.80;;;;;;10194083;29;20240;-69
2022/11/21 13:46:59;;;;;;;3.07;1.20;;;11.40;43.30;;;;;;10355480;28;20288;-69
2022/11/21 13:52:11;;;;;;;1.13;1.00;;;11.50;41.80;;;;;;10349103;28;20702;-71
2022/11/21 13:57:36;;;;;;;2.20;1.10;;;11.50;41.70;;;;;;10354721;28;20238;-75
2022/11/21 14:03:25;;;;;;;1.77;1.10;;;11.60;41.40;;;;;;10356955;28;20238;-76
2022/11/21 14:08:29;;;;;;;2.90;1.30;;;11.60;41.30;;;;;;10356528;28;20600;-76
2022/11/21 14:13:36;;;;;;;3.07;1.70;;;11.60;42.40;;;;;;10354645;28;20241;-77
2022/11/21 14:18:44;;;;;;;4.63;1.67;;;11.60;42.10;;;;;;10358210;28;20655;-76
2022/11/21 14:23:48;;;;;;;2.90;2.10;;;11.60;41.30;;;;;;10356514;28;20272;-70
2022/11/21 14:28:52;;;;;;;9.27;2.67;;;11.60;42.20;;;;;;10356045;28;20226;-70
2022/11/21 14:34:00;;;;;;;3.63;2.17;;;11.70;42.60;;;;;;10356263;28;20234;-70
2022/11/21 14:39:08;;;;;;;18.37;3.00;;;11.70;41.90;;;;;;10355724;28;20721;-73
2022/11/21 14:44:31;;;;;;;140.43;10.10;;;11.70;41.90;;;;;;10355148;28;20329;-71
2022/11/21 14:49:35;;;;;;;45.67;5.10;;;11.70;42.90;;;;;;10354122;28;20334;-72
2022/11/21 14:54:45;;;;;;;14.03;3.57;;;11.70;42.60;;;;;;10352732;28;20299;-70
2022/11/21 15:00:11;;;;;;;6.23;3.17;;;11.70;42.40;;;;;;10355972;28;20272;-71
2022/11/21 15:05:36;;;;;;;4.53;2.90;;;11.70;42.50;;;;;;10354911;28;20853;-71
2022/11/21 15:11:01;;;;;;;3.50;1.97;;;11.70;42.20;;;;;;10352352;28;20332;-70
2022/11/21 15:16:05;;;;;;;8.33;2.00;;;11.60;42.90;;;;;;10355310;28;20229;-72
2022/11/21 15:21:15;;;;;;;2.80;2.60;;;11.50;42.30;;;;;;10351052;28;20230;-71
2022/11/21 15:26:30;;;;;;;2.53;1.80;;;11.50;42.00;;;;;;10354274;28;20710;-69
2022/11/21 15:31:33;;;;;;;2.93;1.30;;;11.50;41.70;;;;;;10351737;28;20241;-69
2022/11/21 15:36:38;;;;;;;2.23;1.30;;;11.40;42.40;;;;;;10351550;28;20702;-71
2022/11/21 15:41:41;;;;;;;1.67;1.50;;;11.30;41.90;;;;;;10351688;28;20725;-71
2022/11/21 15:46:45;;;;;;;5.80;5.13;;;11.30;42.20;;;;;;10352146;28;20226;-72
2022/11/21 15:51:50;;;;;;;6.30;4.00;;;11.20;42.20;;;;;;10351029;28;20229;-72
2022/11/21 15:57:09;;;;;;;5.43;3.50;;;11.10;41.40;;;;;;10362162;28;20225;-72
2022/11/21 16:02:13;;;;;;;4.80;3.43;;;11.00;41.70;;;;;;10361221;28;20645;-72
2022/11/21 16:07:18;;;;;;;5.03;4.13;;;10.90;41.60;;;;;;10362137;28;20776;-71
2022/11/21 16:12:21;;;;;;;5.57;4.37;;;10.80;41.90;;;;;;10361689;28;20225;-77
2022/11/21 16:17:24;;;;;;;5.00;4.50;;;10.70;41.70;;;;;;10354841;28;20230;-76
2022/11/21 16:22:29;;;;;;;5.00;4.43;;;10.60;41.70;;;;;;10357017;28;20636;-71
2022/11/21 16:27:32;;;;;;;4.73;4.33;;;10.50;41.30;;;;;;10357902;28;20622;-71
2022/11/21 16:32:35;;;;;;;4.97;4.23;;;10.50;41.70;;;;;;10360208;28;20230;-72
2022/11/21 16:37:40;;;;;;;3.97;3.63;;;10.40;41.30;;;;;;10355774;28;20226;-76
2022/11/21 16:42:43;;;;;;;5.80;4.87;;;10.30;41.20;;;;;;10358869;28;20230;-68
2022/11/21 16:47:46;;;;;;;6.37;5.60;;;10.20;41.30;;;;;;10358309;28;20233;-71
2022/11/21 16:52:52;;;;;;;5.37;4.87;;;10.10;41.30;;;;;;10356586;28;20234;-71
2022/11/21 16:57:56;;;;;;;5.33;4.93;;;10.00;41.20;;;;;;10353132;28;20222;-71
2022/11/21 17:03:01;;;;;;;5.90;5.40;;;9.90;42.20;;;;;;10358008;28;20730;-70
2022/11/21 17:08:05;;;;;;;5.63;4.77;;;9.80;41.90;;;;;;10326245;28;20242;-70
2022/11/21 17:13:08;;;;;;;7.97;5.80;;;9.70;41.90;;;;;;10318085;28;20235;-70
2022/11/21 17:18:12;;;;;;;8.10;6.43;;;9.60;42.10;;;;;;10318688;28;20660;-70
2022/11/21 17:23:16;;;;;;;6.87;6.17;;;9.50;42.10;;;;;;10336303;28;20226;-70
2022/11/21 17:28:19;;;;;;;9.20;8.30;;;9.40;42.00;;;;;;10359869;28;20305;-70
2022/11/21 17:33:23;;;;;;;9.03;8.13;;;9.40;42.30;;;;;;10353484;28;21045;-70
2022/11/21 17:38:27;;;;;;;8.57;7.40;;;9.30;42.20;;;;;;10330903;28;20234;-70
2022/11/21 17:43:31;;;;;;;9.40;6.60;;;9.20;42.10;;;;;;10350655;28;20240;-70
2022/11/21 17:48:35;;;;;;;7.23;6.33;;;9.10;42.40;;;;;;10319210;28;20243;-70
2022/11/21 17:53:41;;;;;;;9.20;7.00;;;9.00;42.50;;;;;;10339694;28;20231;-70
2022/11/21 17:58:45;;;;;;;9.30;8.17;;;8.90;42.50;;;;;;10315164;28;20273;-70
2022/11/21 18:03:54;;;;;;;9.70;8.73;;;8.90;42.60;;;;;;10342126;28;20227;-70
2022/11/21 18:08:58;;;;;;;7.77;7.03;;;8.90;42.40;;;;;;10317581;28;20219;-70
2022/11/21 18:14:02;;;;;;;9.27;8.37;;;8.80;42.50;;;;;;10313984;28;20235;-69
2022/11/21 18:19:06;;;;;;;10.87;8.03;;;8.80;42.60;;;;;;10330726;28;20757;-70
2022/11/21 18:24:11;;;;;;;9.50;6.97;;;8.70;42.70;;;;;;10323268;28;20591;-70
2022/11/21 18:29:14;;;;;;;9.10;8.17;;;8.60;42.70;;;;;;10315027;28;20227;-70
2022/11/21 18:34:37;;;;;;;6.40;5.83;;;8.60;42.80;;;;;;10314347;28;20231;-70
2022/11/21 18:39:42;;;;;;;6.90;6.20;;;8.60;42.90;;;;;;10314184;28;20230;-68
2022/11/21 18:44:45;;;;;;;6.47;5.80;;;8.50;42.90;;;;;;10321914;28;20226;-74
2022/11/21 18:49:49;;;;;;;5.50;5.00;;;8.50;43.00;;;;;;10314748;28;20285;-74
2022/11/21 18:54:53;;;;;;;6.83;5.93;;;8.50;42.80;;;;;;10336360;28;20304;-70
2022/11/21 18:59:56;;;;;;;7.20;6.33;;;8.40;42.70;;;;;;10355865;28;20229;-70
2022/11/21 19:04:59;;;;;;;7.97;6.63;;;8.30;42.70;;;;;;10353687;28;20284;-70
2022/11/21 19:10:05;;;;;;;5.90;5.07;;;8.30;42.90;;;;;;10353828;28;20233;-70
2022/11/21 19:15:28;;;;;;;4.57;3.80;;;8.20;42.90;;;;;;10350507;28;20283;-70
2022/11/21 19:20:33;;;;;;;5.00;4.50;;;8.20;43.00;;;;;;10353448;28;21137;-70
2022/11/21 19:25:38;;;;;;;5.17;4.67;;;8.10;43.10;;;;;;10355094;28;20230;-70
2022/11/21 19:30:41;;;;;;;5.97;5.10;;;8.00;43.20;;;;;;10354771;28;20695;-70
2022/11/21 19:35:44;;;;;;;5.57;4.93;;;8.00;43.40;;;;;;10354521;28;20579;-70
2022/11/21 19:46:09;;;;;;;4.63;4.20;;;8.00;43.40;;;;;;10356147;28;20222;-70
2022/11/21 19:51:12;;;;;;;5.30;4.67;;;8.00;43.40;;;;;;10352534;28;20241;-68
2022/11/21 19:56:18;;;;;;;5.43;4.30;;;8.00;43.50;;;;;;10350894;28;20225;-74
2022/11/21 20:01:23;;;;;;;5.20;4.70;;;8.00;43.40;;;;;;10347398;28;20261;-73
2022/11/21 20:06:29;;;;;;;6.57;5.23;;;8.00;43.40;;;;;;10336801;28;20329;-70
2022/11/21 20:11:34;;;;;;;6.30;5.63;;;7.90;43.30;;;;;;10339963;28;20257;-70
2022/11/21 20:16:39;;;;;;;5.70;5.20;;;8.00;43.30;;;;;;10344925;28;20288;-70
2022/11/21 20:21:43;;;;;;;5.27;4.77;;;7.90;43.20;;;;;;10339559;28;20238;-70
2022/11/21 20:26:48;;;;;;;6.27;5.07;;;7.90;43.40;;;;;;10342105;28;20230;-70
2022/11/21 20:31:51;;;;;;;7.97;4.70;;;7.90;43.40;;;;;;10342287;28;20226;-70
2022/11/21 20:36:54;;;;;;;4.33;3.93;;;7.90;43.50;;;;;;10341272;28;20231;-72
2022/11/21 20:41:59;;;;;;;5.00;3.93;;;7.90;43.40;;;;;;10349632;28;20650;-69
2022/11/21 20:47:02;;;;;;;3.27;2.87;;;7.90;43.40;;;;;;10349612;28;20880;-70
2022/11/21 20:52:05;;;;;;;3.30;2.97;;;7.90;43.30;;;;;;10348828;28;20250;-70
2022/11/21 20:57:30;;;;;;;3.60;2.87;;;7.90;43.30;;;;;;10355168;28;20284;-70
2022/11/21 21:02:33;;;;;;;3.23;2.50;;;7.70;43.40;;;;;;10356201;28;20234;-72
2022/11/21 21:07:36;;;;;;;4.23;3.47;;;7.70;43.90;;;;;;10356932;28;20666;-72
2022/11/21 21:12:41;;;;;;;2.90;2.60;;;7.70;43.70;;;;;;10354083;28;20642;-68
2022/11/21 21:17:50;;;;;;;3.57;2.70;;;7.70;43.90;;;;;;10354655;28;20262;-73
2022/11/21 21:22:55;;;;;;;2.87;2.67;;;7.70;43.90;;;;;;10355242;28;20238;-69
2022/11/21 21:28:00;;;;;;;4.00;3.60;;;7.70;44.00;;;;;;10356990;28;20333;-67
2022/11/21 21:33:03;;;;;;;3.80;3.40;;;7.80;43.90;;;;;;10351886;28;20230;-67
2022/11/21 21:38:06;;;;;;;3.17;2.83;;;7.80;43.90;;;;;;10349626;28;20720;-67
2022/11/21 21:43:12;;;;;;;3.23;2.93;;;7.80;43.80;;;;;;10346787;28;20230;-67
2022/11/21 21:48:15;;;;;;;2.57;2.37;;;7.90;43.90;;;;;;10354061;28;20234;-67
2022/11/21 21:53:18;;;;;;;3.10;2.60;;;7.90;43.80;;;;;;10345049;28;20223;-67
2022/11/21 21:58:23;;;;;;;3.30;2.67;;;7.90;43.90;;;;;;10349481;28;20242;-67
2022/11/21 22:03:26;;;;;;;5.03;4.63;;;7.90;43.80;;;;;;10350693;28;20234;-67
2022/11/21 22:08:31;;;;;;;3.57;2.90;;;8.00;44.00;;;;;;10351558;28;20226;-68
2022/11/21 22:13:37;;;;;;;2.57;2.37;;;8.00;43.90;;;;;;10351131;28;20269;-68
2022/11/21 22:18:41;;;;;;;2.10;2.00;;;8.00;43.80;;;;;;10352776;28;20233;-69
2022/11/21 22:23:45;;;;;;;2.27;2.17;;;8.00;43.90;;;;;;10349849;28;20650;-67
2022/11/21 22:29:09;;;;;;;2.20;2.00;;;8.00;43.90;;;;;;10355040;28;20261;-69
2022/11/21 22:34:13;;;;;;;1.80;1.70;;;8.10;43.90;;;;;;10353606;28;20223;-68
2022/11/21 22:39:16;;;;;;;2.40;1.57;;;8.10;43.70;;;;;;10356247;28;20237;-68
2022/11/21 22:44:21;;;;;;;2.23;1.93;;;8.00;43.70;;;;;;10354775;28;20285;-69
2022/11/21 22:49:24;;;;;;;7.13;5.60;;;8.00;43.70;;;;;;10355152;28;20746;-75
2022/11/21 22:54:27;;;;;;;4.77;4.07;;;8.00;43.80;;;;;;10351409;28;20234;-73
2022/11/21 22:59:32;;;;;;;2.60;2.40;;;8.10;43.90;;;;;;10355027;28;20234;-73
2022/11/21 23:04:35;;;;;;;2.00;1.80;;;8.10;43.70;;;;;;10350864;28;20230;-73
2022/11/21 23:09:38;;;;;;;2.27;1.90;;;8.10;43.50;;;;;;10350519;28;20598;-73
2022/11/21 23:14:43;;;;;;;1.87;1.53;;;8.10;43.50;;;;;;10352629;28;20288;-73
2022/11/21 23:19:46;;;;;;;1.73;1.63;;;8.00;43.40;;;;;;10350268;28;20231;-73
2022/11/21 23:24:49;;;;;;;2.20;1.80;;;8.00;43.40;;;;;;10353159;28;20241;-73
2022/11/21 23:29:54;;;;;;;2.70;1.67;;;8.00;43.30;;;;;;10348225;28;20641;-73
2022/11/21 23:34:57;;;;;;;2.00;1.80;;;7.90;43.10;;;;;;10350833;28;20884;-74
2022/11/21 23:40:00;;;;;;;1.33;1.23;;;7.90;43.20;;;;;;10354232;28;20226;-74
2022/11/21 23:45:05;;;;;;;2.00;1.47;;;7.80;43.20;;;;;;10352497;28;20229;-74
2022/11/21 23:50:09;;;;;;;1.47;1.37;;;7.80;43.70;;;;;;10355630;28;20281;-73
2022/11/21 23:55:12;;;;;;;1.60;1.50;;;7.70;43.40;;;;;;10352350;28;20598;-71
